createdAt,value
2022-11-14T00:01:08.942Z,79.41
2022-11-14T00:03:56.062Z,78.97
2022-11-14T00:06:43.198Z,79.09
2022-11-14T00:09:31.592Z,78.66
2022-11-14T00:12:18.636Z,78.89
2022-11-14T00:15:06.336Z,78.71
2022-11-14T00:17:53.402Z,78.25
2022-11-14T00:20:40.339Z,76.55
2022-11-14T00:23:27.657Z,77.11
2022-11-14T00:26:15.943Z,77.88
2022-11-14T00:29:02.845Z,77.77
2022-11-14T00:31:50.026Z,77.13
2022-11-14T00:34:36.930Z,77.41
2022-11-14T00:37:23.929Z,77.71
2022-11-14T00:40:11.065Z,77.20
2022-11-14T00:42:59.000Z,77.33
2022-11-14T00:45:46.097Z,77.11
2022-11-14T00:48:33.006Z,76.97
2022-11-14T00:51:19.927Z,76.60
2022-11-14T00:54:07.039Z,77.55
2022-11-14T00:56:54.070Z,77.09
2022-11-14T00:59:42.145Z,77.31
2022-11-14T01:02:29.171Z,76.56
2022-11-14T01:05:16.361Z,77.03
2022-11-14T01:08:03.914Z,77.37
2022-11-14T01:10:52.198Z,76.84
2022-11-14T01:13:39.997Z,77.48
2022-11-14T01:16:28.443Z,76.02
2022-11-14T01:19:15.207Z,75.05
2022-11-14T01:22:06.101Z,75.20
2022-11-14T01:24:53.242Z,74.85
2022-11-14T01:27:41.373Z,75.38
2022-11-14T01:30:28.209Z,75.69
2022-11-14T01:33:16.644Z,75.01
2022-11-14T01:36:03.567Z,75.44
2022-11-14T01:38:54.436Z,75.02
2022-11-14T01:41:41.244Z,75.58
2022-11-14T01:44:45.706Z,75.85
2022-11-14T01:47:34.149Z,76.28
2022-11-14T01:50:22.704Z,75.71
2022-11-14T01:53:09.454Z,75.68
2022-11-14T01:55:58.663Z,76.80
2022-11-14T01:58:47.374Z,76.15
2022-11-14T02:01:37.907Z,75.31
2022-11-14T02:04:27.318Z,75.08
2022-11-14T02:07:16.421Z,71.40
2022-11-14T02:10:06.892Z,70.94
2022-11-14T02:12:54.541Z,70.01
2022-11-14T02:15:42.220Z,69.82
2022-11-14T02:18:29.297Z,68.29
2022-11-14T02:21:18.004Z,69.75
2022-11-14T02:24:09.117Z,66.18
2022-11-14T02:26:56.027Z,66.08
2022-11-14T02:29:43.071Z,66.10
2022-11-14T02:32:45.087Z,65.43
2022-11-14T02:35:38.473Z,65.35
2022-11-14T02:38:26.439Z,65.95
2022-11-14T02:41:13.456Z,66.31
2022-11-14T02:44:00.025Z,66.91
2022-11-14T02:46:46.963Z,67.03
2022-11-14T02:49:33.856Z,67.04
2022-11-14T02:52:20.618Z,67.64
2022-11-14T02:55:09.820Z,66.82
2022-11-14T02:57:56.501Z,66.92
2022-11-14T03:01:06.028Z,65.29
2022-11-14T03:03:50.488Z,65.59
2022-11-14T03:06:37.074Z,65.52
2022-11-14T03:09:24.205Z,65.34
2022-11-14T03:12:12.486Z,65.87
2022-11-14T03:14:59.645Z,65.12
2022-11-14T03:17:46.406Z,65.46
2022-11-14T03:20:33.388Z,65.79
2022-11-14T03:23:20.479Z,65.96
2022-11-14T03:26:09.671Z,65.38
2022-11-14T03:28:57.776Z,65.74
2022-11-14T03:31:44.318Z,65.74
2022-11-14T03:34:31.416Z,64.59
2022-11-14T03:37:18.494Z,64.57
2022-11-14T03:40:06.643Z,64.16
2022-11-14T03:42:53.483Z,64.67
2022-11-14T03:45:41.848Z,65.66
2022-11-14T03:48:28.877Z,64.42
2022-11-14T03:51:15.755Z,65.38
2022-11-14T03:54:02.996Z,65.79
2022-11-14T03:56:49.523Z,64.90
2022-11-14T03:59:36.768Z,64.88
2022-11-14T04:02:25.029Z,64.93
2022-11-14T04:05:11.877Z,64.63
2022-11-14T04:07:58.417Z,65.19
2022-11-14T04:10:48.356Z,65.38
2022-11-14T04:13:35.131Z,64.75
2022-11-14T04:16:21.866Z,64.67
2022-11-14T04:19:10.458Z,64.46
2022-11-14T04:21:57.053Z,64.56
2022-11-14T04:24:43.653Z,64.63
2022-11-14T04:27:31.754Z,65.00
2022-11-14T04:30:18.546Z,65.00
2022-11-14T04:33:05.572Z,65.06
2022-11-14T04:35:53.698Z,64.85
2022-11-14T04:38:40.873Z,64.92
2022-11-14T04:41:27.804Z,65.01
2022-11-14T04:44:14.934Z,64.56
2022-11-14T04:47:01.674Z,64.87
2022-11-14T04:49:48.859Z,65.44
2022-11-14T04:52:37.339Z,65.75
2022-11-14T04:55:24.015Z,64.81
2022-11-14T04:58:11.433Z,65.54
2022-11-14T05:00:59.141Z,66.04
2022-11-14T05:03:46.168Z,65.94
2022-11-14T05:06:33.466Z,66.63
2022-11-14T05:09:22.071Z,66.78
2022-11-14T05:12:09.062Z,67.18
2022-11-14T05:14:56.203Z,66.75
2022-11-14T05:17:42.825Z,66.78
2022-11-14T05:20:29.883Z,66.93
2022-11-14T05:23:21.287Z,67.61
2022-11-14T05:26:10.613Z,67.13
2022-11-14T05:28:57.634Z,66.93
2022-11-14T05:31:44.879Z,66.72
2022-11-14T05:34:31.462Z,67.20
2022-11-14T05:37:20.013Z,66.49
2022-11-14T05:40:07.865Z,67.37
2022-11-14T05:42:57.763Z,66.85
2022-11-14T05:45:45.073Z,67.42
2022-11-14T05:48:32.569Z,66.79
2022-11-14T05:51:21.319Z,67.17
2022-11-14T05:54:08.788Z,65.93
2022-11-14T05:56:55.618Z,66.57
2022-11-14T05:59:44.140Z,67.16
2022-11-14T06:02:34.547Z,66.35
2022-11-14T06:05:21.601Z,66.10
2022-11-14T06:08:08.978Z,65.84
2022-11-14T06:10:55.518Z,66.09
2022-11-14T06:13:43.427Z,66.79
2022-11-14T06:16:31.839Z,66.61
2022-11-14T06:19:18.883Z,66.08
2022-11-14T06:22:05.526Z,66.75
2022-11-14T06:24:52.145Z,65.87
2022-11-14T06:27:41.470Z,66.57
2022-11-14T06:30:31.079Z,67.14
2022-11-14T06:33:19.167Z,67.17
2022-11-14T06:36:07.882Z,65.26
2022-11-14T06:38:54.954Z,65.60
2022-11-14T06:41:41.883Z,65.20
2022-11-14T06:44:31.291Z,65.18
2022-11-14T06:47:18.199Z,65.47
2022-11-14T06:50:08.012Z,65.64
2022-11-14T06:52:54.873Z,65.06
2022-11-14T06:55:41.902Z,64.38
2022-11-14T06:58:31.164Z,65.20
2022-11-14T07:01:19.463Z,64.93
2022-11-14T07:04:06.649Z,65.04
2022-11-14T07:06:55.225Z,64.53
2022-11-14T07:09:42.373Z,64.22
2022-11-14T07:12:29.685Z,64.05
2022-11-14T07:15:19.445Z,63.63
2022-11-14T07:18:07.806Z,64.13
2022-11-14T07:20:59.031Z,64.02
2022-11-14T07:23:47.178Z,64.32
2022-11-14T07:26:34.254Z,63.87
2022-11-14T07:29:21.160Z,62.77
2022-11-14T07:32:08.020Z,63.69
2022-11-14T07:35:00.771Z,63.73
2022-11-14T07:37:49.242Z,63.59
2022-11-14T07:40:37.412Z,63.22
2022-11-14T07:43:24.423Z,62.84
2022-11-14T07:46:13.355Z,62.42
2022-11-14T07:49:00.374Z,62.59
2022-11-14T07:51:47.017Z,62.25
2022-11-14T07:54:33.762Z,62.87
2022-11-14T07:57:22.232Z,62.87
2022-11-14T08:00:10.934Z,62.21
2022-11-14T08:02:57.997Z,61.45
2022-11-14T08:05:45.007Z,61.62
2022-11-14T08:08:32.513Z,62.13
2022-11-14T08:11:40.903Z,60.63
2022-11-14T08:14:29.605Z,60.76
2022-11-14T08:17:16.568Z,61.24
2022-11-14T08:20:03.590Z,61.16
2022-11-14T08:22:50.688Z,61.84
2022-11-14T08:25:37.695Z,62.12
2022-11-14T08:28:24.695Z,61.48
2022-11-14T08:31:13.753Z,60.88
2022-11-14T08:34:00.950Z,60.98
2022-11-14T08:36:48.105Z,61.71
2022-11-14T08:39:35.175Z,60.77
2022-11-14T08:42:22.108Z,60.54
2022-11-14T08:45:09.717Z,60.54
2022-11-14T08:47:57.679Z,60.11
2022-11-14T08:50:44.736Z,60.55
2022-11-14T08:53:32.069Z,61.22
2022-11-14T08:56:18.957Z,60.67
2022-11-14T08:59:05.712Z,61.04
2022-11-14T09:01:52.679Z,59.87
2022-11-14T09:04:41.790Z,60.62
2022-11-14T09:07:29.048Z,61.02
2022-11-14T09:10:16.256Z,60.09
2022-11-14T09:13:03.739Z,61.02
2022-11-14T09:15:50.514Z,61.87
2022-11-14T09:18:37.548Z,62.11
2022-11-14T09:21:26.155Z,62.02
2022-11-14T09:24:12.961Z,60.97
2022-11-14T09:26:59.901Z,61.66
2022-11-14T09:29:47.124Z,61.20
2022-11-14T09:32:34.367Z,61.69
2022-11-14T09:35:21.143Z,61.58
2022-11-14T09:38:12.189Z,61.47
2022-11-14T09:41:06.610Z,62.02
2022-11-14T09:44:26.394Z,61.50
2022-11-14T09:47:20.441Z,61.55
2022-11-14T09:50:12.751Z,61.46
2022-11-14T09:53:02.474Z,61.14
2022-11-14T09:55:51.010Z,61.54
2022-11-14T09:58:38.149Z,61.88
2022-11-14T10:01:34.294Z,61.63
2022-11-14T10:04:25.842Z,61.63
2022-11-14T10:07:24.124Z,61.62
2022-11-14T10:10:17.051Z,61.44
2022-11-14T10:13:17.624Z,61.42
2022-11-14T10:16:09.180Z,61.15
2022-11-14T10:19:05.712Z,61.31
2022-11-14T10:22:03.735Z,61.63
2022-11-14T10:25:00.391Z,61.76
2022-11-14T10:28:04.841Z,60.94
2022-11-14T10:30:57.344Z,61.60
2022-11-14T10:33:52.494Z,61.64
2022-11-14T10:36:51.633Z,60.71
2022-11-14T10:39:41.007Z,100.00
2022-11-14T10:42:32.270Z,100.00
2022-11-14T10:45:25.237Z,100.00
2022-11-14T10:48:15.988Z,100.00
2022-11-14T10:51:05.030Z,100.00
2022-11-14T10:53:55.598Z,100.00
2022-11-14T10:56:48.804Z,100.00
2022-11-14T10:59:36.550Z,100.00
2022-11-14T11:02:23.537Z,100.00
2022-11-14T11:05:18.005Z,100.00
2022-11-14T11:08:43.238Z,100.00
2022-11-14T11:12:55.309Z,59.20
2022-11-14T11:15:44.331Z,59.76
2022-11-14T11:18:32.990Z,60.78
2022-11-14T11:21:22.182Z,60.82
2022-11-14T11:24:10.593Z,60.00
2022-11-14T11:27:15.396Z,59.91
2022-11-14T11:30:20.111Z,59.63
2022-11-14T11:33:18.356Z,59.87
2022-11-14T11:36:07.504Z,60.13
2022-11-14T11:38:54.545Z,59.73
2022-11-14T11:42:07.749Z,60.20
2022-11-14T11:44:52.085Z,60.04
2022-11-14T11:47:42.205Z,60.90
2022-11-14T11:50:29.157Z,60.43
2022-11-14T11:53:22.021Z,60.79
2022-11-14T11:56:13.125Z,60.27
2022-11-14T11:59:07.142Z,60.43
2022-11-14T12:01:54.411Z,60.16
2022-11-14T12:04:42.532Z,58.88
2022-11-14T12:07:38.592Z,58.13
2022-11-14T12:10:28.082Z,58.46
2022-11-14T12:13:59.539Z,58.83
2022-11-14T12:17:12.267Z,58.30
2022-11-14T12:20:08.485Z,58.54
2022-11-14T12:23:13.153Z,58.45
2022-11-14T12:26:08.114Z,58.63
2022-11-14T12:29:21.258Z,58.89
2022-11-14T12:32:16.092Z,59.02
2022-11-14T12:35:08.277Z,59.02
2022-11-14T12:37:56.681Z,59.81
2022-11-14T12:40:51.064Z,59.51
2022-11-14T12:43:39.963Z,59.63
2022-11-14T12:46:27.281Z,59.59
2022-11-14T12:49:38.894Z,59.48
2022-11-14T12:52:48.737Z,60.37
2022-11-14T12:56:07.092Z,60.03
2022-11-14T12:59:11.278Z,60.32
2022-11-14T13:02:22.230Z,59.86
2022-11-14T13:05:38.836Z,59.76
2022-11-14T13:09:04.942Z,59.63
2022-11-14T13:12:09.527Z,60.25
2022-11-14T13:15:15.745Z,60.43
2022-11-14T13:18:32.822Z,60.41
2022-11-14T13:21:44.980Z,60.46
2022-11-14T13:25:05.780Z,60.82
2022-11-14T13:28:21.895Z,61.46
2022-11-14T13:31:08.009Z,62.13
2022-11-14T13:33:59.107Z,62.37
2022-11-14T13:36:51.027Z,62.05
2022-11-14T13:39:43.866Z,62.73
2022-11-14T13:42:42.894Z,62.21
2022-11-14T13:45:46.713Z,63.06
2022-11-14T13:49:02.753Z,63.13
2022-11-14T13:51:53.581Z,62.86
2022-11-14T13:54:47.184Z,62.99
2022-11-14T13:57:43.112Z,62.85
2022-11-14T14:00:31.899Z,63.20
2022-11-14T14:03:27.142Z,62.79
2022-11-14T14:06:26.541Z,62.97
2022-11-14T14:09:19.556Z,63.11
2022-11-14T14:12:19.492Z,63.15
2022-11-14T14:15:15.747Z,62.83
2022-11-14T14:18:09.576Z,63.76
2022-11-14T14:21:01.813Z,63.93
2022-11-14T14:23:53.503Z,63.96
2022-11-14T14:26:55.750Z,63.92
2022-11-14T14:29:47.231Z,63.76
2022-11-14T14:32:34.473Z,63.96
2022-11-14T14:35:23.885Z,63.60
2022-11-14T14:38:24.196Z,64.27
2022-11-14T14:41:11.527Z,63.94
2022-11-14T14:43:58.239Z,64.17
2022-11-14T14:46:45.448Z,64.35
2022-11-14T14:49:36.635Z,63.61
2022-11-14T14:52:27.571Z,63.95
2022-11-14T14:55:27.029Z,63.34
2022-11-14T14:58:22.225Z,63.27
2022-11-14T15:01:13.722Z,63.30
2022-11-14T15:04:04.471Z,62.78
2022-11-14T15:06:53.616Z,63.15
2022-11-14T15:09:40.419Z,62.68
2022-11-14T15:12:30.904Z,63.13
2022-11-14T15:15:18.501Z,62.25
2022-11-14T15:18:08.358Z,62.78
2022-11-14T15:21:12.507Z,62.03
2022-11-14T15:24:01.130Z,62.40
2022-11-14T15:26:49.901Z,62.43
2022-11-14T15:29:46.832Z,61.70
2022-11-14T15:32:34.921Z,61.64
2022-11-14T15:35:32.959Z,60.79
2022-11-14T15:38:43.127Z,60.88
2022-11-14T15:41:32.045Z,61.14
2022-11-14T15:44:31.839Z,61.46
2022-11-14T15:47:25.286Z,60.88
2022-11-14T15:50:28.490Z,61.15
2022-11-14T15:53:23.837Z,60.07
2022-11-14T15:56:13.191Z,60.51
2022-11-14T15:59:00.142Z,60.50
2022-11-14T16:01:48.292Z,60.04
2022-11-14T16:04:40.633Z,59.85
2022-11-14T16:07:30.102Z,59.48
2022-11-14T16:10:18.188Z,59.83
2022-11-14T16:13:05.344Z,59.69
2022-11-14T16:15:52.321Z,59.11
2022-11-14T16:18:39.652Z,59.14
2022-11-14T16:21:28.005Z,58.69
2022-11-14T16:24:17.753Z,58.81
2022-11-14T16:27:05.498Z,58.55
2022-11-14T16:29:52.869Z,58.84
2022-11-14T16:32:40.766Z,58.87
2022-11-14T16:35:28.612Z,58.72
2022-11-14T16:38:17.388Z,59.39
2022-11-14T16:41:07.943Z,59.39
2022-11-14T16:43:55.575Z,59.26
2022-11-14T16:46:42.770Z,59.47
2022-11-14T16:49:30.044Z,59.40
2022-11-14T16:52:17.300Z,59.05
2022-11-14T16:55:05.715Z,58.96
2022-11-14T16:57:52.637Z,59.37
2022-11-14T17:00:39.841Z,59.56
2022-11-14T17:03:26.858Z,58.99
2022-11-14T17:06:13.986Z,59.75
2022-11-14T17:09:01.753Z,59.84
2022-11-14T17:11:50.907Z,59.61
2022-11-14T17:14:39.509Z,59.63
2022-11-14T17:17:26.486Z,60.02
2022-11-14T17:20:13.724Z,59.85
2022-11-14T17:23:00.905Z,59.46
2022-11-14T17:25:47.799Z,59.57
2022-11-14T17:28:38.550Z,59.79
2022-11-14T17:31:26.529Z,58.58
2022-11-14T17:34:13.527Z,59.25
2022-11-14T17:37:00.795Z,59.50
2022-11-14T17:39:47.721Z,59.46
2022-11-14T17:42:34.846Z,59.63
2022-11-14T17:45:23.150Z,59.13
2022-11-14T17:48:10.243Z,58.29
2022-11-14T17:50:57.678Z,59.18
2022-11-14T17:53:45.222Z,58.90
2022-11-14T17:56:32.318Z,59.63
2022-11-14T17:59:20.610Z,58.85
2022-11-14T18:02:14.676Z,58.35
2022-11-14T18:05:01.281Z,58.74
2022-11-14T18:07:48.218Z,59.08
2022-11-14T18:10:41.876Z,58.07
2022-11-14T18:13:32.472Z,58.50
2022-11-14T18:16:21.353Z,58.19
2022-11-14T18:19:15.641Z,58.12
2022-11-14T18:22:02.510Z,58.28
2022-11-14T18:24:50.426Z,58.26
2022-11-14T18:27:39.527Z,58.63
2022-11-14T18:30:41.077Z,58.38
2022-11-14T18:33:30.874Z,58.10
2022-11-14T18:36:22.587Z,58.59
2022-11-14T18:39:09.688Z,58.23
2022-11-14T18:41:56.713Z,58.20
2022-11-14T18:44:43.859Z,58.23
2022-11-14T18:47:33.227Z,57.27
2022-11-14T18:50:20.210Z,58.12
2022-11-14T18:53:08.622Z,57.08
2022-11-14T18:55:55.517Z,56.16
2022-11-14T18:58:43.351Z,55.97
2022-11-14T19:01:32.168Z,56.92
2022-11-14T19:04:19.870Z,56.80
2022-11-14T19:07:07.024Z,56.68
2022-11-14T19:09:55.266Z,55.79
2022-11-14T19:12:42.857Z,55.01
2022-11-14T19:15:30.033Z,54.62
2022-11-14T19:18:17.209Z,55.14
2022-11-14T19:21:06.236Z,54.44
2022-11-14T19:23:53.932Z,54.64
2022-11-14T19:26:42.615Z,54.34
2022-11-14T19:29:29.582Z,55.18
2022-11-14T19:32:16.593Z,54.96
2022-11-14T19:35:03.270Z,55.11
2022-11-14T19:37:50.346Z,54.86
2022-11-14T19:40:38.554Z,55.30
2022-11-14T19:43:28.216Z,54.85
2022-11-14T19:46:17.084Z,54.51
2022-11-14T19:49:05.062Z,54.80
2022-11-14T19:51:51.788Z,54.75
2022-11-14T19:54:39.327Z,54.94
2022-11-14T19:57:26.041Z,55.03
2022-11-14T20:00:15.292Z,54.69
2022-11-14T20:03:02.235Z,54.62
2022-11-14T20:05:49.685Z,54.83
2022-11-14T20:08:37.554Z,55.62
2022-11-14T20:11:25.396Z,54.77
2022-11-14T20:14:12.328Z,54.60
2022-11-14T20:17:01.373Z,54.53
2022-11-14T20:19:48.701Z,54.55
2022-11-14T20:22:35.786Z,54.90
2022-11-14T20:25:22.680Z,55.09
2022-11-14T20:28:09.672Z,55.00
2022-11-14T20:30:56.656Z,55.24
2022-11-14T20:33:51.835Z,55.10
2022-11-14T20:37:08.872Z,55.09
2022-11-14T20:39:45.369Z,55.43
2022-11-14T20:42:32.749Z,55.02
2022-11-14T20:45:19.904Z,54.92
2022-11-14T20:48:07.578Z,55.10
2022-11-14T20:51:03.507Z,55.65
2022-11-14T20:53:51.206Z,55.45
2022-11-14T20:56:38.376Z,55.90
2022-11-14T20:59:25.625Z,56.09
2022-11-14T21:02:13.484Z,55.30
2022-11-14T21:05:00.527Z,55.55
2022-11-14T21:07:49.076Z,55.43
2022-11-14T21:10:47.156Z,55.91
2022-11-14T21:13:53.287Z,56.14
2022-11-14T21:16:41.116Z,56.12
2022-11-14T21:19:29.314Z,55.56
2022-11-14T21:22:16.509Z,54.83
2022-11-14T21:25:04.605Z,54.82
2022-11-14T21:27:52.008Z,55.33
2022-11-14T21:30:38.786Z,55.41
2022-11-14T21:33:26.733Z,55.15
2022-11-14T21:36:44.345Z,55.19
2022-11-14T21:39:22.139Z,54.37
2022-11-14T21:42:14.263Z,53.58
2022-11-14T21:45:05.160Z,52.84
2022-11-14T21:47:52.248Z,53.77
2022-11-14T21:50:39.523Z,53.24
2022-11-14T21:53:26.364Z,53.49
2022-11-14T21:56:15.052Z,52.80
2022-11-14T21:59:15.784Z,53.31
2022-11-14T22:02:21.576Z,52.84
2022-11-14T22:05:08.935Z,52.86
2022-11-14T22:07:55.847Z,53.34
2022-11-14T22:10:43.146Z,53.34
2022-11-14T22:13:31.743Z,53.42
2022-11-14T22:16:21.060Z,53.59
2022-11-14T22:19:08.426Z,53.98
2022-11-14T22:21:55.610Z,53.86
2022-11-14T22:24:42.414Z,53.99
2022-11-14T22:27:29.488Z,54.12
2022-11-14T22:30:16.907Z,54.10
2022-11-14T22:33:05.610Z,54.58
2022-11-14T22:35:52.327Z,54.17
2022-11-14T22:38:39.539Z,54.61
2022-11-14T22:41:32.246Z,54.76
2022-11-14T22:44:19.937Z,54.74
2022-11-14T22:47:07.040Z,54.34
2022-11-14T22:49:55.504Z,54.01
2022-11-14T22:52:42.573Z,54.64
2022-11-14T22:55:29.694Z,54.72
2022-11-14T22:58:16.844Z,54.82
2022-11-14T23:01:10.860Z,54.76
2022-11-14T23:03:59.485Z,55.13
2022-11-14T23:06:48.037Z,54.43
2022-11-14T23:09:34.944Z,54.58
2022-11-14T23:12:22.192Z,54.07
2022-11-14T23:15:09.446Z,53.53
2022-11-14T23:17:56.654Z,54.11
2022-11-14T23:20:43.790Z,54.54
2022-11-14T23:23:32.103Z,54.54
2022-11-14T23:26:19.717Z,54.46
2022-11-14T23:29:06.664Z,54.86
2022-11-14T23:31:53.799Z,54.72
2022-11-14T23:34:40.625Z,54.90
2022-11-14T23:37:27.497Z,54.38
2022-11-14T23:40:15.709Z,54.30
2022-11-14T23:43:02.400Z,54.23
2022-11-14T23:45:49.400Z,55.48
2022-11-14T23:48:36.113Z,54.75
2022-11-14T23:51:22.808Z,54.59
2022-11-14T23:54:09.767Z,54.55
2022-11-14T23:57:01.429Z,54.32
2022-11-14T23:59:50.865Z,54.80
